Time;durP1;ratioP1;P1;durP2;ratioP2;P2;SDS_P1;SDS_P2;PMS_P1;PMS_P2;Temp;Humidity;BMP_temperature;BMP_pressure;BME280_temperature;BME280_humidity;BME280_pressure;Samples;Min_cycle;Max_cycle;Signal;HPM_P1;HPM_P2
2023/04/20 00:01:45;;;;;;;;;;;;;;;7.04;100.00;96743.19;108540;1282;24202;-85
2023/04/20 00:04:14;;;;;;;;;;;;;;;7.04;100.00;96747.52;108481;1279;85481;-85
2023/04/20 00:06:42;;;;;;;;;;;;;;;7.06;100.00;96747.90;108597;1282;22475;-86
2023/04/20 00:09:11;;;;;;;;;;;;;;;7.09;100.00;96749.23;108542;1280;22531;-85
2023/04/20 00:11:39;;;;;;;;;;;;;;;7.12;100.00;96750.52;108564;1282;25437;-85
2023/04/20 00:14:07;;;;;;;;;;;;;;;7.12;100.00;96747.94;108499;1279;63851;-85
2023/04/20 00:16:34;;;;;;;;;;;;;;;7.13;100.00;96749.05;108525;1276;22528;-85
2023/04/20 00:19:01;;;;;;;;;;;;;;;7.13;100.00;96747.46;108635;1278;22515;-85
2023/04/20 00:21:29;;;;;;;;;;;;;;;7.11;100.00;96741.50;108544;1281;22925;-85
2023/04/20 00:23:56;;;;;;;;;;;;;;;7.09;100.00;96738.95;108592;1274;44446;-85
2023/04/20 00:26:23;;;;;;;;;;;;;;;7.10;100.00;96739.06;108668;1275;25974;-85
2023/04/20 00:28:51;;;;;;;;;;;;;;;7.06;100.00;96736.30;108556;1282;22512;-85
2023/04/20 00:31:18;;;;;;;;;;;;;;;7.01;100.00;96737.62;108578;1282;22644;-86
2023/04/20 00:33:46;;;;;;;;;;;;;;;6.95;100.00;96736.16;108508;1274;97913;-85
2023/04/20 00:36:13;;;;;;;;;;;;;;;6.92;100.00;96736.77;108564;1277;23945;-85
2023/04/20 00:38:40;;;;;;;;;;;;;;;6.88;100.00;96732.77;108579;1280;22577;-85
2023/04/20 00:41:08;;;;;;;;;;;;;;;6.87;100.00;96734.17;108534;1282;25416;-85
2023/04/20 00:43:38;;;;;;;;;;;;;;;6.85;100.00;96732.21;108520;1282;25107;-85
2023/04/20 00:46:05;;;;;;;;;;;;;;;6.85;100.00;96733.91;108571;1278;22547;-86
2023/04/20 00:48:32;;;;;;;;;;;;;;;6.87;100.00;96733.91;108532;1282;22588;-85
2023/04/20 00:51:01;;;;;;;;;;;;;;;6.86;100.00;96735.39;108551;1282;22545;-85
2023/04/20 00:53:28;;;;;;;;;;;;;;;6.87;100.00;96734.39;108596;1282;22541;-86
2023/04/20 00:55:55;;;;;;;;;;;;;;;6.88;100.00;96737.29;108621;1278;59729;-85
2023/04/20 00:58:23;;;;;;;;;;;;;;;6.89;100.00;96738.25;108656;1281;22519;-85
2023/04/20 01:00:50;;;;;;;;;;;;;;;6.91;100.00;96737.81;108555;1281;22515;-86
2023/04/20 01:03:17;;;;;;;;;;;;;;;6.91;100.00;96738.18;108641;1281;25354;-85
2023/04/20 01:05:45;;;;;;;;;;;;;;;6.86;100.00;96736.77;108500;1274;83868;-87
2023/04/20 01:08:12;;;;;;;;;;;;;;;6.82;100.00;96735.05;108574;1282;22529;-86
2023/04/20 01:10:39;;;;;;;;;;;;;;;6.80;100.00;96734.55;108561;1279;22524;-86
2023/04/20 01:13:09;;;;;;;;;;;;;;;6.80;100.00;96735.83;108534;1282;22556;-86
2023/04/20 01:15:36;;;;;;;;;;;;;;;6.82;100.00;96738.58;108541;1282;47491;-86
2023/04/20 01:18:04;;;;;;;;;;;;;;;6.76;100.00;96738.15;108553;1277;25337;-85
2023/04/20 01:20:32;;;;;;;;;;;;;;;6.70;100.00;96741.42;108538;1282;22531;-86
2023/04/20 01:23:00;;;;;;;;;;;;;;;6.65;100.00;96742.48;108564;1282;22508;-86
2023/04/20 01:25:27;;;;;;;;;;;;;;;6.64;100.00;96742.95;108518;1279;55574;-86
2023/04/20 01:27:54;;;;;;;;;;;;;;;6.67;100.00;96741.97;108558;1279;22508;-86
2023/04/20 01:30:22;;;;;;;;;;;;;;;6.69;100.00;96736.50;108563;1275;22518;-86
2023/04/20 01:32:49;;;;;;;;;;;;;;;6.72;100.00;96738.21;108551;1282;22571;-86
2023/04/20 01:35:16;;;;;;;;;;;;;;;6.74;100.00;96735.11;108495;1282;51497;-86
2023/04/20 01:37:44;;;;;;;;;;;;;;;6.75;100.00;96732.70;108552;1282;22533;-86
2023/04/20 01:40:12;;;;;;;;;;;;;;;6.77;100.00;96727.95;108515;1282;24215;-86
2023/04/20 01:42:40;;;;;;;;;;;;;;;6.76;100.00;96725.88;108595;1278;22644;-86
2023/04/20 01:45:08;;;;;;;;;;;;;;;6.76;100.00;96723.56;108464;1276;65906;-86
2023/04/20 01:47:37;;;;;;;;;;;;;;;6.74;100.00;96723.16;108535;1282;22532;-86
2023/04/20 01:50:04;;;;;;;;;;;;;;;6.73;100.00;96722.94;108523;1282;22511;-86
2023/04/20 01:52:32;;;;;;;;;;;;;;;6.75;100.00;96721.59;108552;1275;22628;-86
2023/04/20 01:54:59;;;;;;;;;;;;;;;6.77;100.00;96722.53;108512;1282;32419;-86
2023/04/20 01:57:26;;;;;;;;;;;;;;;6.79;100.00;96720.31;108676;1275;22514;-86
2023/04/20 01:59:55;;;;;;;;;;;;;;;6.81;100.00;96715.59;108617;1274;24846;-86
2023/04/20 02:02:22;;;;;;;;;;;;;;;6.80;100.00;96715.21;108655;1281;22507;-86
2023/04/20 02:04:49;;;;;;;;;;;;;;;6.75;100.00;96719.28;108500;1277;39248;-86
2023/04/20 02:07:17;;;;;;;;;;;;;;;6.72;100.00;96715.50;108632;1281;24058;-86
2023/04/20 02:09:44;;;;;;;;;;;;;;;6.69;100.00;96712.48;108550;1281;22526;-86
2023/04/20 02:12:11;;;;;;;;;;;;;;;6.66;100.00;96710.15;108630;1281;22578;-86
2023/04/20 02:14:39;;;;;;;;;;;;;;;6.61;100.00;96711.46;108508;1281;43426;-86
2023/04/20 02:17:06;;;;;;;;;;;;;;;6.56;100.00;96709.20;108576;1274;22716;-86
2023/04/20 02:19:33;;;;;;;;;;;;;;;6.52;100.00;96708.45;108588;1275;22671;-86
2023/04/20 02:22:00;;;;;;;;;;;;;;;6.53;100.00;96706.55;108542;1282;22552;-86
2023/04/20 02:24:28;;;;;;;;;;;;;;;6.55;100.00;96710.58;108583;1274;46965;-87
2023/04/20 02:26:55;;;;;;;;;;;;;;;6.58;100.00;96705.16;108551;1281;23791;-87
2023/04/20 02:29:23;;;;;;;;;;;;;;;6.59;100.00;96708.80;108544;1282;22543;-87
2023/04/20 02:31:52;;;;;;;;;;;;;;;6.58;100.00;96711.21;108562;1282;22636;-86
2023/04/20 02:34:21;;;;;;;;;;;;;;;6.52;100.00;96711.39;108480;1282;62316;-86
2023/04/20 02:36:49;;;;;;;;;;;;;;;6.49;100.00;96717.84;108584;1282;22521;-86
2023/04/20 02:39:16;;;;;;;;;;;;;;;6.45;100.00;96718.69;108571;1282;22548;-86
2023/04/20 02:41:43;;;;;;;;;;;;;;;6.43;100.00;96717.77;108564;1282;22548;-86
2023/04/20 02:44:11;;;;;;;;;;;;;;;6.43;100.00;96716.83;108490;1282;56592;-86
2023/04/20 02:46:38;;;;;;;;;;;;;;;6.43;100.00;96720.25;108567;1282;22554;-86
2023/04/20 02:49:06;;;;;;;;;;;;;;;6.42;100.00;96723.45;108565;1282;22548;-86
2023/04/20 02:51:33;;;;;;;;;;;;;;;6.40;100.00;96723.77;108590;1282;22554;-86
2023/04/20 02:54:00;;;;;;;;;;;;;;;6.39;100.00;96721.96;108460;1275;67876;-86
2023/04/20 02:56:28;;;;;;;;;;;;;;;6.41;100.00;96722.02;108572;1282;23904;-87
2023/04/20 02:58:55;;;;;;;;;;;;;;;6.41;100.00;96723.13;108541;1282;22550;-87
2023/04/20 03:01:22;;;;;;;;;;;;;;;6.41;100.00;96730.98;108582;1282;22524;-86
2023/04/20 03:03:49;;;;;;;;;;;;;;;6.38;100.00;96729.00;108498;1275;88600;-86
2023/04/20 03:06:17;;;;;;;;;;;;;;;6.38;100.00;96730.91;108588;1282;22525;-86
2023/04/20 03:08:44;;;;;;;;;;;;;;;6.38;100.00;96730.27;108577;1273;22712;-86
2023/04/20 03:11:11;;;;;;;;;;;;;;;6.37;100.00;96733.73;108653;1281;25502;-86
2023/04/20 03:13:40;;;;;;;;;;;;;;;6.35;100.00;96727.66;108550;1282;24034;-86
2023/04/20 03:16:07;;;;;;;;;;;;;;;6.37;100.00;96731.15;108570;1282;24223;-87
2023/04/20 03:18:35;;;;;;;;;;;;;;;6.40;100.00;96733.07;108547;1282;22618;-86
2023/04/20 03:21:02;;;;;;;;;;;;;;;6.43;100.00;96735.37;108570;1282;25416;-86
2023/04/20 03:23:30;;;;;;;;;;;;;;;6.45;100.00;96742.64;108562;1282;23973;-86
2023/04/20 03:25:57;;;;;;;;;;;;;;;6.46;100.00;96737.81;108562;1281;50005;-86
2023/04/20 03:28:24;;;;;;;;;;;;;;;6.49;100.00;96738.49;108561;1282;24303;-86
2023/04/20 03:30:51;;;;;;;;;;;;;;;6.51;100.00;96734.93;108586;1282;23344;-86
2023/04/20 03:33:19;;;;;;;;;;;;;;;6.53;100.00;96740.10;108579;1282;25427;-86
2023/04/20 03:35:46;;;;;;;;;;;;;;;6.55;100.00;96740.33;108527;1278;52301;-86
2023/04/20 03:38:13;;;;;;;;;;;;;;;6.58;100.00;96744.45;108524;1282;22572;-86
2023/04/20 03:40:41;;;;;;;;;;;;;;;6.60;100.00;96742.84;108556;1282;22656;-86
2023/04/20 03:43:10;;;;;;;;;;;;;;;6.62;100.00;96746.52;108559;1282;22596;-86
2023/04/20 03:45:37;;;;;;;;;;;;;;;6.65;100.00;96744.43;108536;1282;55212;-86
2023/04/20 03:48:05;;;;;;;;;;;;;;;6.64;100.00;96744.53;108572;1282;22511;-87
2023/04/20 03:50:33;;;;;;;;;;;;;;;6.63;100.00;96747.27;108519;1282;22512;-86
2023/04/20 03:53:00;;;;;;;;;;;;;;;6.64;100.00;96750.70;108555;1282;22602;-87
2023/04/20 03:55:28;;;;;;;;;;;;;;;6.62;100.00;96751.56;108513;1274;45772;-86
2023/04/20 03:57:55;;;;;;;;;;;;;;;6.59;100.00;96752.57;108575;1282;23734;-86
2023/04/20 04:00:23;;;;;;;;;;;;;;;6.60;100.00;96756.48;108539;1282;22559;-86
2023/04/20 04:02:51;;;;;;;;;;;;;;;6.63;100.00;96758.17;108554;1282;22747;-86
2023/04/20 04:05:18;;;;;;;;;;;;;;;6.67;100.00;96756.77;108490;1279;72620;-86
2023/04/20 04:07:45;;;;;;;;;;;;;;;6.69;100.00;96759.21;108617;1281;24838;-86
2023/04/20 04:10:13;;;;;;;;;;;;;;;6.72;100.00;96761.93;108567;1282;22791;-86
2023/04/20 04:12:40;;;;;;;;;;;;;;;6.75;100.00;96757.38;108532;1282;22982;-87
2023/04/20 04:15:10;;;;;;;;;;;;;;;6.79;100.00;96758.58;108530;1274;46061;-86
2023/04/20 04:17:37;;;;;;;;;;;;;;;6.81;100.00;96755.75;108559;1282;24207;-86
2023/04/20 04:20:07;;;;;;;;;;;;;;;6.83;100.00;96755.29;108530;1282;22573;-86
2023/04/20 04:22:35;;;;;;;;;;;;;;;6.85;100.00;96757.36;108569;1282;23608;-86
2023/04/20 04:25:02;;;;;;;;;;;;;;;6.87;100.00;96761.23;108518;1282;47107;-86
2023/04/20 04:27:33;;;;;;;;;;;;;;;6.90;100.00;96766.27;108581;1281;22542;-86
2023/04/20 04:30:02;;;;;;;;;;;;;;;6.90;100.00;96768.73;108394;1274;215329;-86
2023/04/20 04:32:30;;;;;;;;;;;;;;;6.91;100.00;96771.02;108547;1282;22458;-86
2023/04/20 04:34:59;;;;;;;;;;;;;;;6.92;100.00;96776.45;108452;1282;52366;-86
2023/04/20 04:37:27;;;;;;;;;;;;;;;6.93;100.00;96775.36;108552;1270;25242;-87
2023/04/20 04:39:56;;;;;;;;;;;;;;;6.94;100.00;96773.84;108544;1273;22524;-86
2023/04/20 04:42:24;;;;;;;;;;;;;;;6.97;100.00;96774.86;108609;1277;25339;-86
2023/04/20 04:44:53;;;;;;;;;;;;;;;7.01;100.00;96776.52;108434;1281;52548;-86
2023/04/20 04:47:21;;;;;;;;;;;;;;;7.01;100.00;96779.00;108536;1282;24272;-86
2023/04/20 04:49:49;;;;;;;;;;;;;;;6.93;100.00;96779.79;108632;1281;22530;-86
2023/04/20 04:52:17;;;;;;;;;;;;;;;6.91;100.00;96785.04;108551;1281;22620;-86
2023/04/20 04:54:45;;;;;;;;;;;;;;;6.95;100.00;96786.13;108577;1278;45667;-86
2023/04/20 04:57:13;;;;;;;;;;;;;;;6.96;100.00;96795.67;108595;1274;22551;-86
2023/04/20 04:59:41;;;;;;;;;;;;;;;6.96;100.00;96794.67;108513;1282;23936;-86
2023/04/20 05:02:09;;;;;;;;;;;;;;;6.99;100.00;96796.42;108554;1282;22517;-86
2023/04/20 05:04:37;;;;;;;;;;;;;;;7.00;100.00;96797.96;108598;1281;66933;-86
2023/04/20 05:07:05;;;;;;;;;;;;;;;6.96;100.00;96798.63;108580;1282;26002;-86
2023/04/20 05:09:33;;;;;;;;;;;;;;;6.91;100.00;96798.25;108537;1282;22504;-86
2023/04/20 05:12:01;;;;;;;;;;;;;;;6.88;100.00;96802.02;108620;1281;25444;-86
2023/04/20 05:14:30;;;;;;;;;;;;;;;6.86;100.00;96802.48;108539;1275;50140;-86
2023/04/20 05:16:57;;;;;;;;;;;;;;;6.88;100.00;96807.91;108562;1282;22532;-86
2023/04/20 05:19:25;;;;;;;;;;;;;;;6.88;100.00;96808.08;108643;1275;22573;-86
2023/04/20 05:21:52;;;;;;;;;;;;;;;6.86;100.00;96806.17;108606;1276;22576;-86
2023/04/20 05:24:20;;;;;;;;;;;;;;;6.90;100.00;96804.90;108491;1279;35606;-86
2023/04/20 05:26:47;;;;;;;;;;;;;;;6.96;100.00;96802.79;108545;1274;25434;-87
2023/04/20 05:29:14;;;;;;;;;;;;;;;7.00;100.00;96809.24;108614;1281;25419;-86
2023/04/20 05:31:42;;;;;;;;;;;;;;;7.02;100.00;96806.89;108560;1282;22737;-86
2023/04/20 05:34:09;;;;;;;;;;;;;;;6.99;100.00;96804.88;108554;1274;54165;-86
2023/04/20 05:36:37;;;;;;;;;;;;;;;6.97;100.00;96804.33;108573;1274;22510;-86
2023/04/20 05:39:04;;;;;;;;;;;;;;;6.97;100.00;96802.48;108556;1275;22522;-86
2023/04/20 05:41:32;;;;;;;;;;;;;;;6.99;100.00;96802.17;108575;1282;22544;-86
2023/04/20 05:43:59;;;;;;;;;;;;;;;7.00;100.00;96802.29;108503;1278;57222;-86
2023/04/20 05:46:29;;;;;;;;;;;;;;;6.99;100.00;96807.23;108551;1282;22526;-86
2023/04/20 05:48:56;;;;;;;;;;;;;;;7.01;100.00;96805.73;108559;1282;22518;-87
2023/04/20 05:51:27;;;;;;;;;;;;;;;7.07;100.00;96801.84;108527;1282;22548;-86
2023/04/20 05:53:55;;;;;;;;;;;;;;;7.15;100.00;96804.74;108549;1281;46637;-86
2023/04/20 05:56:22;;;;;;;;;;;;;;;7.26;100.00;96806.25;108606;1268;24314;-86
2023/04/20 05:58:50;;;;;;;;;;;;;;;7.37;100.00;96805.88;108561;1281;22560;-86
2023/04/20 06:01:18;;;;;;;;;;;;;;;7.43;100.00;96809.81;108585;1281;22595;-86
2023/04/20 06:03:46;;;;;;;;;;;;;;;7.43;100.00;96811.08;108510;1282;52024;-85
2023/04/20 06:06:13;;;;;;;;;;;;;;;7.43;100.00;96809.70;108556;1282;23774;-86
2023/04/20 06:08:41;;;;;;;;;;;;;;;7.40;100.00;96808.16;108565;1274;22541;-86
2023/04/20 06:11:08;;;;;;;;;;;;;;;7.37;100.00;96814.63;108562;1277;22529;-86
2023/04/20 06:13:35;;;;;;;;;;;;;;;7.40;100.00;96820.50;108552;1282;22520;-86
2023/04/20 06:16:08;;;;;;;;;;;;;;;7.50;100.00;96823.85;108536;1275;58692;-86
2023/04/20 06:18:35;;;;;;;;;;;;;;;7.61;100.00;96822.87;108562;1274;22650;-86
2023/04/20 06:21:03;;;;;;;;;;;;;;;7.67;100.00;96824.39;108570;1282;22506;-86
2023/04/20 06:23:30;;;;;;;;;;;;;;;7.73;100.00;96826.70;108527;1282;24239;-86
2023/04/20 06:25:57;;;;;;;;;;;;;;;7.79;100.00;96825.16;108487;1282;66858;-86
2023/04/20 06:28:25;;;;;;;;;;;;;;;7.84;100.00;96824.33;108563;1275;22560;-86
2023/04/20 06:30:52;;;;;;;;;;;;;;;7.92;100.00;96824.55;108547;1275;22563;-86
2023/04/20 06:33:22;;;;;;;;;;;;;;;8.01;100.00;96824.11;108529;1282;24253;-86
2023/04/20 06:35:53;;;;;;;;;;;;;;;8.08;100.00;96828.02;108515;1283;39562;-86
2023/04/20 06:38:21;;;;;;;;;;;;;;;8.21;100.00;96825.75;108565;1282;22634;-86
2023/04/20 06:40:48;;;;;;;;;;;;;;;8.36;100.00;96828.21;108578;1270;24428;-86
2023/04/20 06:43:16;;;;;;;;;;;;;;;8.51;100.00;96824.95;108585;1282;22562;-86
2023/04/20 06:45:43;;;;;;;;;;;;;;;8.65;100.00;96824.94;108503;1281;41905;-86
2023/04/20 06:48:10;;;;;;;;;;;;;;;8.79;100.00;96824.92;108575;1279;23321;-86
2023/04/20 06:50:38;;;;;;;;;;;;;;;8.87;100.00;96826.33;108545;1275;22727;-86
2023/04/20 06:53:05;;;;;;;;;;;;;;;8.89;100.00;96824.31;108592;1282;25429;-86
2023/04/20 06:55:33;;;;;;;;;;;;;;;8.90;100.00;96828.71;108565;1281;36800;-86
2023/04/20 06:58:05;;;;;;;;;;;;;;;8.94;100.00;96831.25;108566;1282;22522;-86
2023/04/20 07:00:32;;;;;;;;;;;;;;;9.02;100.00;96828.15;108526;1282;22594;-87
2023/04/20 07:03:00;;;;;;;;;;;;;;;9.05;100.00;96830.11;108559;1282;24212;-86
2023/04/20 07:05:27;;;;;;;;;;;;;;;8.94;100.00;96836.75;108547;1281;59127;-86
2023/04/20 07:07:55;;;;;;;;;;;;;;;8.81;100.00;96837.88;108572;1281;22586;-86
2023/04/20 07:10:22;;;;;;;;;;;;;;;8.73;100.00;96837.70;108591;1282;22504;-86
2023/04/20 07:12:49;;;;;;;;;;;;;;;8.80;100.00;96839.56;108575;1274;22558;-86
2023/04/20 07:15:17;;;;;;;;;;;;;;;8.95;100.00;96844.30;108494;1282;67486;-87
2023/04/20 07:17:44;;;;;;;;;;;;;;;9.13;100.00;96840.16;108554;1282;22505;-87
2023/04/20 07:20:12;;;;;;;;;;;;;;;9.30;100.00;96842.41;108509;1282;22566;-87
2023/04/20 07:22:39;;;;;;;;;;;;;;;9.33;100.00;96842.04;108570;1282;25402;-87
2023/04/20 07:25:08;;;;;;;;;;;;;;;9.44;100.00;96841.56;108528;1282;56539;-86
2023/04/20 07:27:36;;;;;;;;;;;;;;;9.74;100.00;96842.66;108787;1283;22511;-86
2023/04/20 07:30:05;;;;;;;;;;;;;;;10.08;100.00;96839.58;108555;1282;24246;-86
2023/04/20 07:32:33;;;;;;;;;;;;;;;10.31;100.00;96840.38;108565;1275;25295;-87
2023/04/20 07:35:00;;;;;;;;;;;;;;;10.51;99.16;96844.28;108505;1282;86429;-87
2023/04/20 07:37:27;;;;;;;;;;;;;;;10.34;96.75;96845.05;108598;1274;23760;-87
2023/04/20 07:39:55;;;;;;;;;;;;;;;10.28;97.64;96845.23;108566;1282;23069;-86
2023/04/20 07:42:22;;;;;;;;;;;;;;;10.23;96.92;96848.41;108563;1282;24072;-86
2023/04/20 07:44:50;;;;;;;;;;;;;;;10.12;96.41;96845.75;108532;1275;57606;-86
2023/04/20 07:47:17;;;;;;;;;;;;;;;10.43;97.16;96848.77;108570;1282;25435;-86
2023/04/20 07:49:46;;;;;;;;;;;;;;;10.78;96.86;96846.86;108553;1271;22542;-86
2023/04/20 07:52:14;;;;;;;;;;;;;;;10.95;95.20;96848.67;108580;1281;22495;-87
2023/04/20 07:54:41;;;;;;;;;;;;;;;10.90;93.08;96848.50;108573;1274;58976;-87
2023/04/20 07:57:08;;;;;;;;;;;;;;;10.75;92.09;96852.55;108587;1282;22585;-87
2023/04/20 07:59:36;;;;;;;;;;;;;;;10.65;92.55;96856.15;108659;1282;25292;-86
2023/04/20 08:02:05;;;;;;;;;;;;;;;10.81;93.64;96853.05;108524;1282;24227;-86
2023/04/20 08:04:32;;;;;;;;;;;;;;;11.02;92.67;96858.20;108511;1274;59046;-86
2023/04/20 08:07:00;;;;;;;;;;;;;;;10.90;91.16;96858.42;108540;1271;22948;-86
2023/04/20 08:09:28;;;;;;;;;;;;;;;10.82;91.71;96864.98;108593;1281;22491;-86
2023/04/20 08:11:55;;;;;;;;;;;;;;;10.62;89.31;96866.45;108599;1280;23837;-86
2023/04/20 08:14:23;;;;;;;;;;;;;;;10.30;89.44;96865.35;108488;1275;59384;-86
2023/04/20 08:16:50;;;;;;;;;;;;;;;10.20;90.44;96865.89;108554;1282;22515;-86
2023/04/20 08:19:17;;;;;;;;;;;;;;;10.25;91.50;96865.88;108551;1282;22514;-85
2023/04/20 08:21:45;;;;;;;;;;;;;;;10.34;89.88;96865.23;108576;1282;22555;-85
2023/04/20 08:24:12;;;;;;;;;;;;;;;10.26;89.89;96866.62;108515;1280;48181;-86
2023/04/20 08:26:42;;;;;;;;;;;;;;;10.24;90.15;96866.73;108554;1274;22501;-85
2023/04/20 08:29:09;;;;;;;;;;;;;;;10.31;90.75;96871.13;108551;1282;24229;-86
2023/04/20 08:31:37;;;;;;;;;;;;;;;10.28;89.68;96873.99;108572;1274;22539;-85
2023/04/20 08:34:06;;;;;;;;;;;;;;;10.21;90.40;96872.20;108520;1282;45185;-86
2023/04/20 08:36:36;;;;;;;;;;;;;;;10.29;91.63;96874.63;108585;1282;22501;-85
2023/04/20 08:39:08;;;;;;;;;;;;;;;10.34;90.47;96876.46;108563;1282;23741;-85
2023/04/20 08:41:35;;;;;;;;;;;;;;;10.23;91.00;96880.52;108534;1282;23188;-85
2023/04/20 08:44:03;;;;;;;;;;;;;;;10.30;91.80;96881.73;108512;1274;48824;-86
2023/04/20 08:46:30;;;;;;;;;;;;;;;10.41;91.39;96878.79;108563;1282;25419;-85
2023/04/20 08:48:59;;;;;;;;;;;;;;;10.42;90.81;96872.85;108590;1275;22513;-85
2023/04/20 08:51:27;;;;;;;;;;;;;;;10.47;90.54;96873.46;108545;1282;22506;-85
2023/04/20 08:53:55;;;;;;;;;;;;;;;10.59;90.24;96873.37;108473;1277;78016;-85
2023/04/20 08:56:32;;;;;;;;;;;;;;;10.67;90.66;96870.04;108572;1282;22519;-85
2023/04/20 08:59:02;;;;;;;;;;;;;;;10.84;90.13;96871.50;108566;1282;25453;-85
2023/04/20 09:01:29;;;;;;;;;;;;;;;10.82;89.89;96875.80;108567;1282;22505;-84
2023/04/20 09:03:57;;;;;;;;;;;;;;;10.91;90.27;96874.42;108506;1282;44280;-85
2023/04/20 09:06:25;;;;;;;;;;;;;;;10.80;87.07;96871.30;108546;1282;22709;-85
2023/04/20 09:08:54;;;;;;;;;;;;;;;10.49;87.18;96876.32;108576;1282;24325;-85
2023/04/20 09:11:22;;;;;;;;;;;;;;;10.48;89.17;96873.19;108503;1282;23637;-84
2023/04/20 09:14:00;;;;;;;;;;;;;;;10.63;90.14;96876.84;108516;1271;49388;-85
2023/04/20 09:16:30;;;;;;;;;;;;;;;10.81;90.05;96875.65;108540;1282;22550;-85
2023/04/20 09:18:58;;;;;;;;;;;;;;;11.06;90.74;96877.80;108607;1282;22523;-84
2023/04/20 09:21:26;;;;;;;;;;;;;;;11.34;90.67;96878.05;108614;1282;23237;-85
2023/04/20 09:23:58;;;;;;;;;;;;;;;11.60;90.36;96878.39;108522;1282;53031;-85
2023/04/20 09:26:25;;;;;;;;;;;;;;;11.85;90.40;96879.90;108522;1280;24252;-85
2023/04/20 09:28:53;;;;;;;;;;;;;;;12.17;89.97;96878.45;108575;1282;22544;-84
2023/04/20 09:31:21;;;;;;;;;;;;;;;12.66;90.99;96872.74;108537;1274;24158;-84
2023/04/20 09:33:58;;;;;;;;;;;;;;;13.32;90.07;96873.11;108519;1281;51182;-83
2023/04/20 09:36:35;;;;;;;;;;;;;;;13.95;89.01;96870.46;108664;1282;24271;-84
2023/04/20 09:39:03;;;;;;;;;;;;;;;14.25;86.17;96871.38;108560;1282;22514;-83
2023/04/20 09:41:32;;;;;;;;;;;;;;;14.17;84.11;96871.89;108556;1282;24250;-83
2023/04/20 09:44:00;;;;;;;;;;;;;;;14.12;83.87;96871.67;108508;1282;61301;-83
2023/04/20 09:46:28;;;;;;;;;;;;;;;14.14;83.62;96872.64;108546;1282;22550;-84
2023/04/20 09:48:56;;;;;;;;;;;;;;;13.99;80.15;96875.34;108566;1274;22550;-84
2023/04/20 09:51:25;;;;;;;;;;;;;;;13.63;81.18;96867.16;108582;1282;22660;-84
2023/04/20 09:53:53;;;;;;;;;;;;;;;13.76;81.37;96870.88;108568;1275;36073;-85
2023/04/20 09:56:21;;;;;;;;;;;;;;;13.78;80.57;96869.54;108599;1274;22564;-85
2023/04/20 09:58:49;;;;;;;;;;;;;;;13.65;79.82;96872.23;108560;1282;22743;-84
2023/04/20 10:01:16;;;;;;;;;;;;;;;13.56;80.40;96872.23;108583;1282;22522;-85
2023/04/20 10:03:45;;;;;;;;;;;;;;;13.48;79.96;96866.75;108507;1280;108888;-84
2023/04/20 10:06:30;;;;;;;;;;;;;;;13.37;79.92;96867.57;108589;1282;23217;-84
2023/04/20 10:08:58;;;;;;;;;;;;;;;13.24;79.87;96871.44;108567;1282;24224;-84
2023/04/20 10:11:26;;;;;;;;;;;;;;;13.19;80.13;96874.10;108578;1282;22505;-85
2023/04/20 10:13:54;;;;;;;;;;;;;;;13.21;80.62;96873.06;108559;1278;28761;-85
2023/04/20 10:16:22;;;;;;;;;;;;;;;13.13;79.18;96873.20;108557;1278;22562;-85
2023/04/20 10:18:56;;;;;;;;;;;;;;;13.06;79.73;96870.33;108613;1279;22639;-84
2023/04/20 10:21:24;;;;;;;;;;;;;;;13.13;79.70;96866.29;108579;1275;22503;-85
2023/04/20 10:23:51;;;;;;;;;;;;;;;13.15;79.78;96862.05;108536;1282;56234;-85
2023/04/20 10:26:19;;;;;;;;;;;;;;;13.14;79.08;96863.45;108579;1282;23234;-85
2023/04/20 10:28:46;;;;;;;;;;;;;;;13.02;78.66;96860.26;108596;1281;23044;-84
2023/04/20 10:31:15;;;;;;;;;;;;;;;12.81;77.95;96865.65;108596;1281;24863;-85
2023/04/20 10:33:53;;;;;;;;;;;;;;;12.58;77.57;96863.54;108582;1282;22530;-84
2023/04/20 10:36:28;;;;;;;;;;;;;;;12.33;77.26;96866.80;108575;1282;22542;-84
2023/04/20 10:38:56;;;;;;;;;;;;;;;12.12;77.11;96868.81;108591;1281;22629;-85
2023/04/20 10:41:24;;;;;;;;;;;;;;;11.92;76.22;96867.27;108608;1281;22526;-85
2023/04/20 10:43:51;;;;;;;;;;;;;;;11.76;76.94;96867.58;108578;1282;22615;-84
2023/04/20 10:46:20;;;;;;;;;;;;;;;11.87;78.05;96865.23;108564;1282;25286;-85
2023/04/20 10:48:54;;;;;;;;;;;;;;;12.16;79.13;96861.17;108600;1282;25229;-85
2023/04/20 10:51:21;;;;;;;;;;;;;;;12.48;79.00;96855.47;108576;1282;22511;-85
2023/04/20 10:54:03;;;;;;;;;;;;;;;12.82;79.28;96856.92;108603;1277;22519;-85
2023/04/20 10:56:37;;;;;;;;;;;;;;;13.19;78.95;96850.14;108536;1282;23552;-82
2023/04/20 10:59:09;;;;;;;;;;;;;;;13.46;78.64;96848.30;108579;1282;23333;-85
2023/04/20 11:01:36;;;;;;;;;;;;;;;13.67;78.00;96851.80;108599;1275;22530;-85
2023/04/20 11:04:05;;;;;;;;;;;;;;;13.77;76.88;96849.98;108536;1282;36732;-85
2023/04/20 11:06:33;;;;;;;;;;;;;;;13.52;73.98;96849.81;108618;1282;23532;-85
2023/04/20 11:09:01;;;;;;;;;;;;;;;13.15;73.95;96850.55;108550;1282;22814;-85
2023/04/20 11:11:28;;;;;;;;;;;;;;;12.99;73.94;96849.86;108569;1271;22499;-84
2023/04/20 11:14:06;;;;;;;;;;;;;;;12.82;74.98;96844.77;108548;1282;23098;-85
2023/04/20 11:16:35;;;;;;;;;;;;;;;12.86;75.72;96846.85;108546;1280;23387;-85
2023/04/20 11:19:03;;;;;;;;;;;;;;;12.93;75.72;96846.95;108591;1281;22507;-85
2023/04/20 11:21:37;;;;;;;;;;;;;;;12.89;76.08;96847.77;108550;1282;23318;-84
2023/04/20 11:24:06;;;;;;;;;;;;;;;12.89;76.43;96845.73;108559;1282;22535;-85
2023/04/20 11:26:37;;;;;;;;;;;;;;;12.84;75.86;96848.91;108569;1282;23181;-85
2023/04/20 11:29:04;;;;;;;;;;;;;;;12.83;76.26;96844.61;108593;1282;22542;-84
2023/04/20 11:31:33;;;;;;;;;;;;;;;12.90;76.74;96846.90;108537;1279;22501;-85
2023/04/20 11:34:00;;;;;;;;;;;;;;;12.96;76.38;96848.22;108597;1269;24415;-85
2023/04/20 11:36:29;;;;;;;;;;;;;;;12.91;75.63;96851.67;108501;1280;84071;-85
2023/04/20 11:39:07;;;;;;;;;;;;;;;12.69;74.06;96850.20;108587;1279;23817;-85
2023/04/20 11:41:37;;;;;;;;;;;;;;;12.43;75.32;96851.06;108589;1282;22520;-85
2023/04/20 11:44:06;;;;;;;;;;;;;;;12.52;76.29;96849.20;108584;1282;24371;-85
2023/04/20 11:46:35;;;;;;;;;;;;;;;12.65;76.55;96846.64;108580;1274;22541;-85
2023/04/20 11:49:03;;;;;;;;;;;;;;;12.76;76.46;96851.08;108630;1274;22714;-84
2023/04/20 11:51:31;;;;;;;;;;;;;;;12.77;76.34;96851.53;108584;1276;22505;-85
2023/04/20 11:53:58;;;;;;;;;;;;;;;12.74;76.28;96852.64;108597;1278;22539;-85
2023/04/20 11:56:26;;;;;;;;;;;;;;;12.66;75.50;96852.27;108503;1279;84385;-85
2023/04/20 11:58:53;;;;;;;;;;;;;;;12.53;75.21;96846.20;108589;1282;22532;-85
2023/04/20 12:01:21;;;;;;;;;;;;;;;12.61;74.99;96847.70;108541;1282;23779;-85
2023/04/20 12:03:48;;;;;;;;;;;;;;;12.69;76.06;96848.08;108541;1282;22541;-85
2023/04/20 12:06:15;;;;;;;;;;;;;;;12.84;76.71;96850.44;108544;1281;53051;-85
2023/04/20 12:08:43;;;;;;;;;;;;;;;13.02;75.52;96847.16;108571;1282;22515;-85
2023/04/20 12:11:10;;;;;;;;;;;;;;;13.12;73.64;96849.86;108559;1276;22553;-85
2023/04/20 12:13:37;;;;;;;;;;;;;;;13.35;74.60;96842.04;108547;1274;22451;-86
2023/04/20 12:16:05;;;;;;;;;;;;;;;13.68;75.80;96840.27;108569;1275;50728;-85
2023/04/20 12:18:32;;;;;;;;;;;;;;;13.86;75.06;96836.99;108536;1282;22905;-85
2023/04/20 12:21:00;;;;;;;;;;;;;;;13.87;72.18;96837.57;108538;1282;22507;-85
2023/04/20 12:23:27;;;;;;;;;;;;;;;13.55;72.51;96836.02;108556;1282;22522;-85
2023/04/20 12:25:55;;;;;;;;;;;;;;;13.71;74.45;96830.73;108522;1281;61461;-86
2023/04/20 12:28:22;;;;;;;;;;;;;;;13.85;72.41;96832.84;108527;1282;22528;-86
2023/04/20 12:30:50;;;;;;;;;;;;;;;13.86;73.05;96827.55;108546;1282;22569;-86
2023/04/20 12:33:17;;;;;;;;;;;;;;;13.97;72.04;96832.12;108566;1278;22642;-86
2023/04/20 12:35:52;;;;;;;;;;;;;;;14.04;72.35;96827.02;108532;1281;39529;-86
2023/04/20 12:38:19;;;;;;;;;;;;;;;14.17;72.71;96825.56;108617;1278;23990;-86
2023/04/20 12:40:47;;;;;;;;;;;;;;;14.38;73.22;96820.09;108537;1282;22566;-86